Time;durP1;ratioP1;P1;durP2;ratioP2;P2;SDS_P1;SDS_P2;PMS_P1;PMS_P2;Temp;Humidity;BMP_temperature;BMP_pressure;BME280_temperature;BME280_humidity;BME280_pressure;Samples;Min_cycle;Max_cycle;Signal;HPM_P1;HPM_P2
2022/11/18 00:01:08;;;;;;;26.90;15.50;;;;;;;6.31;91.76;96325.60;1639638;87;21165;-78
2022/11/18 00:03:36;;;;;;;24.80;14.60;;;;;;;6.32;92.07;96331.26;1637584;87;21515;-76
2022/11/18 00:06:07;;;;;;;22.87;13.93;;;;;;;6.33;92.02;96333.83;1639715;87;21072;-76
2022/11/18 00:08:33;;;;;;;20.48;12.18;;;;;;;6.37;92.21;96325.35;1639691;87;20960;-77
2022/11/18 00:14:19;;;;;;;21.73;12.05;;;;;;;6.42;92.15;96326.47;1639577;87;20993;-76
2022/11/18 00:16:49;;;;;;;18.37;10.30;;;;;;;6.45;92.24;96328.99;1639915;87;21475;-77
2022/11/18 00:19:16;;;;;;;19.25;10.53;;;;;;;6.48;92.51;96328.88;1643486;87;21099;-77
2022/11/18 00:21:43;;;;;;;17.42;10.90;;;;;;;6.53;92.33;96328.23;1643881;87;21044;-77
2022/11/18 00:24:10;;;;;;;15.23;9.93;;;;;;;6.53;92.35;96328.23;1643900;87;21426;-78
2022/11/18 00:26:36;;;;;;;15.90;10.53;;;;;;;6.61;92.54;96318.70;1643691;87;21064;-77
2022/11/18 00:29:04;;;;;;;16.32;10.30;;;;;;;6.59;92.05;96315.27;1635586;87;20972;-77
2022/11/18 00:31:30;;;;;;;16.97;10.18;;;;;;;6.61;92.32;96317.39;1629431;87;21012;-77
2022/11/18 00:33:56;;;;;;;16.12;9.70;;;;;;;6.65;92.27;96308.45;1626466;87;20968;-77
2022/11/18 00:36:23;;;;;;;14.55;9.43;;;;;;;6.68;92.31;96310.94;1629494;87;21544;-77
2022/11/18 00:38:49;;;;;;;15.03;9.18;;;;;;;6.72;92.25;96312.98;1624767;87;21044;-77
2022/11/18 00:41:16;;;;;;;15.72;9.35;;;;;;;6.76;92.56;96301.89;1635738;87;21008;-77
2022/11/18 00:43:42;;;;;;;15.35;9.55;;;;;;;6.79;92.37;96299.11;1613980;88;21051;-76
2022/11/18 00:46:11;;;;;;;16.57;9.78;;;;;;;6.90;92.49;96296.03;1599840;89;21434;-77
2022/11/18 00:48:39;;;;;;;13.50;8.70;;;;;;;6.96;92.37;96294.45;1600571;89;21018;-77
2022/11/18 00:51:16;;;;;;;13.98;8.88;;;;;;;6.98;92.21;96288.67;1612002;88;21050;-77
2022/11/18 00:53:44;;;;;;;13.83;8.63;;;;;;;7.00;92.12;96290.31;1633508;87;21043;-77
2022/11/18 00:56:11;;;;;;;16.10;8.95;;;;;;;7.03;92.28;96283.19;1651267;87;21000;-77
2022/11/18 00:58:37;;;;;;;15.38;9.90;;;;;;;7.03;91.75;96283.19;1651258;86;21015;-77
2022/11/18 01:01:04;;;;;;;15.53;9.53;;;;;;;6.99;91.84;96284.62;1651102;86;21035;-77
2022/11/18 01:03:34;;;;;;;15.78;9.53;;;;;;;6.95;91.49;96283.07;1641534;85;21000;-77
2022/11/18 01:06:02;;;;;;;13.72;8.68;;;;;;;6.90;91.53;96281.09;1651960;85;21080;-78
2022/11/18 01:08:29;;;;;;;15.50;8.93;;;;;;;6.86;91.57;96282.14;1651221;87;21032;-77
2022/11/18 01:13:17;;;;;;;14.70;8.78;;;;;;;6.85;91.65;96277.33;1651161;87;20976;-77
2022/11/18 01:13:25;;;;;;;15.70;9.78;;;;;;;6.83;91.48;96273.05;1632457;87;21059;-77
2022/11/18 01:15:56;;;;;;;18.25;9.70;;;;;;;6.80;91.43;96276.66;1642868;87;21087;-77
2022/11/18 01:18:28;;;;;;;17.30;9.83;;;;;;;6.74;91.33;96279.08;1633480;87;21026;-78
2022/11/18 01:21:01;;;;;;;17.32;10.55;;;;;;;6.70;91.25;96276.66;1643876;86;21091;-77
2022/11/18 01:23:28;;;;;;;16.00;9.13;;;;;;;6.64;90.87;96278.24;1655593;85;21043;-76
2022/11/18 01:25:55;;;;;;;15.60;9.28;;;;;;;6.56;91.17;96271.50;1651080;87;21439;-77
2022/11/18 01:28:21;;;;;;;17.30;10.72;;;;;;;6.53;91.25;96275.59;1651031;87;21422;-78
2022/11/18 01:30:51;;;;;;;20.90;12.03;;;;;;;6.51;91.37;96268.68;1639145;87;21510;-78
2022/11/18 01:33:17;;;;;;;20.48;12.07;;;;;;;6.47;91.70;96270.11;1626169;88;21514;-80
2022/11/18 01:35:43;;;;;;;21.82;13.62;;;;;;;6.45;91.40;96269.30;1627097;88;21025;-77
2022/11/18 01:38:12;;;;;;;23.85;14.45;;;;;;;6.42;91.21;96273.84;1621322;88;21455;-77
2022/11/18 01:40:40;;;;;;;26.37;16.25;;;;;;;6.40;91.36;96261.22;1608805;88;20994;-77
2022/11/18 01:43:14;;;;;;;24.35;16.23;;;;;;;6.35;91.15;96253.49;1622190;88;20974;-77
2022/11/18 01:45:44;;;;;;;26.05;16.20;;;;;;;6.33;91.58;96255.34;1604245;88;21013;-77
2022/11/18 01:48:31;;;;;;;24.95;16.73;;;;;;;6.32;91.64;96241.80;1609092;88;21076;-78
2022/11/18 01:51:03;;;;;;;31.23;17.23;;;;;;;6.31;91.83;96241.41;1601291;88;21523;-76
2022/11/18 01:53:59;;;;;;;28.67;17.45;;;;;;;6.29;91.61;96237.97;1608317;88;21459;-75
2022/11/18 01:56:31;;;;;;;;;;;;;;;6.27;91.64;96238.02;1627786;88;21049;-76
2022/11/18 01:59:02;;;;;;;26.17;14.18;;;;;;;6.26;91.81;96240.71;1637927;88;20366;-76
2022/11/18 02:01:29;;;;;;;24.07;14.50;;;;;;;6.24;91.62;96246.51;1637776;87;21044;-76
2022/11/18 02:03:56;;;;;;;25.45;15.05;;;;;;;6.21;91.89;96244.86;1637944;88;21059;-76
2022/11/18 02:06:23;;;;;;;24.95;14.53;;;;;;;6.19;92.07;96240.97;1637989;87;21403;-76
2022/11/18 02:08:50;;;;;;;27.75;14.60;;;;;;;6.18;92.07;96234.45;1637888;87;21008;-77
2022/11/18 02:14:06;;;;;;;21.37;13.90;;;;;;;6.16;92.04;96242.42;1635516;87;21024;-77
2022/11/18 02:17:04;;;;;;;25.88;14.50;;;;;;;6.17;92.00;96247.20;1637994;87;21029;-77
2022/11/18 02:19:51;;;;;;;25.15;13.45;;;;;;;6.16;92.08;96244.19;1631991;88;21040;-76
2022/11/18 02:22:50;;;;;;;22.20;13.13;;;;;;;6.14;92.13;96249.98;1610916;88;21084;-76
2022/11/18 02:26:11;;;;;;;25.90;13.53;;;;;;;6.13;92.18;96249.56;1618776;88;21387;-77
2022/11/18 02:29:02;;;;;;;24.43;12.85;;;;;;;6.10;92.26;96241.34;1618212;88;20966;-76
2022/11/18 02:31:49;;;;;;;25.37;13.22;;;;;;;6.07;92.20;96234.42;1644091;87;21035;-76
2022/11/18 02:34:26;;;;;;;21.70;12.70;;;;;;;6.09;92.41;96223.02;1645383;86;21047;-76
2022/11/18 02:37:10;;;;;;;23.98;13.32;;;;;;;6.10;92.40;96230.81;1634282;87;20988;-76
2022/11/18 02:39:44;;;;;;;22.62;12.20;;;;;;;6.11;92.45;96235.63;1650284;86;21449;-76
2022/11/18 02:42:14;;;;;;;26.87;13.80;;;;;;;6.12;92.55;96236.02;1643554;87;21055;-76
2022/11/18 02:44:45;;;;;;;23.32;12.68;;;;;;;6.17;92.48;96244.58;1642882;87;21104;-76
2022/11/18 02:47:15;;;;;;;21.02;12.30;;;;;;;6.20;92.39;96242.67;1641595;86;21008;-76
2022/11/18 02:49:50;;;;;;;21.77;13.18;;;;;;;6.24;92.35;96242.12;1596814;87;21028;-76
2022/11/18 02:52:19;;;;;;;22.48;12.70;;;;;;;6.29;92.53;96246.73;1643723;87;21474;-76
2022/11/18 02:54:48;;;;;;;19.37;11.78;;;;;;;6.37;92.77;96240.28;1621794;87;21489;-76
2022/11/18 02:57:17;;;;;;;19.77;11.60;;;;;;;6.43;92.53;96230.81;1643609;87;21545;-76
2022/11/18 02:59:43;;;;;;;21.82;12.80;;;;;;;6.46;92.34;96221.48;1633418;87;21430;-76
2022/11/18 03:02:16;;;;;;;18.87;11.30;;;;;;;6.51;92.39;96221.31;1643642;87;21040;-76
2022/11/18 03:04:46;;;;;;;18.02;11.12;;;;;;;6.54;92.34;96223.34;1643689;87;21036;-77
2022/11/18 03:07:30;;;;;;;19.30;11.00;;;;;;;6.53;92.10;96223.41;1643907;87;21025;-76
2022/11/18 03:09:59;;;;;;;18.25;11.15;;;;;;;6.49;91.96;96219.19;1644157;87;20989;-76
2022/11/18 03:12:37;;;;;;;21.73;11.90;;;;;;;6.47;92.28;96213.98;1641344;87;21079;-77
2022/11/18 03:15:27;;;;;;;19.37;10.55;;;;;;;6.50;92.44;96228.78;1643932;87;20977;-76
2022/11/18 03:18:23;;;;;;;16.85;10.32;;;;;;;6.58;92.81;96226.25;1629072;87;21127;-76
2022/11/18 03:21:01;;;;;;;18.77;11.25;;;;;;;6.63;92.62;96231.30;1643891;87;21502;-76
2022/11/18 03:23:41;;;;;;;16.85;10.68;;;;;;;6.68;92.75;96235.91;1642676;87;21506;-76
2022/11/18 03:26:19;;;;;;;18.70;10.68;;;;;;;6.72;92.94;96232.69;1639758;86;21594;-76
2022/11/18 03:28:50;;;;;;;21.33;10.98;;;;;;;6.77;92.89;96240.41;1643878;87;21056;-76
2022/11/18 03:31:25;;;;;;;19.57;11.60;;;;;;;6.82;92.78;96245.01;1635940;86;20994;-76
2022/11/18 03:33:57;;;;;;;23.75;13.18;;;;;;;6.91;93.07;96242.43;1626866;88;21113;-76
2022/11/18 03:36:27;;;;;;;30.65;14.78;;;;;;;6.90;92.61;96242.91;1638046;88;21022;-76
2022/11/18 03:38:58;;;;;;;26.35;15.03;;;;;;;6.94;92.76;96237.05;1628892;87;21045;-75
2022/11/18 03:41:28;;;;;;;24.82;13.30;;;;;;;6.94;92.37;96237.88;1633573;88;21013;-77
2022/11/18 03:44:06;;;;;;;24.23;14.38;;;;;;;6.89;92.13;96229.33;1638145;87;21008;-75
2022/11/18 03:46:46;;;;;;;29.27;16.05;;;;;;;6.85;91.98;96231.72;1589777;90;21442;-75
2022/11/18 03:49:19;;;;;;;30.92;16.27;;;;;;;6.84;92.21;96231.30;1599047;90;21021;-75
2022/11/18 03:51:54;;;;;;;27.98;16.73;;;;;;;6.86;92.24;96222.89;1626911;88;21431;-75
2022/11/18 03:54:28;;;;;;;28.75;15.32;;;;;;;6.83;91.97;96225.65;1590330;90;21036;-75
2022/11/18 03:57:05;;;;;;;;;;;;;;;6.77;92.06;96225.44;1601662;90;21040;-75
2022/11/18 03:59:46;;;;;;;30.95;16.40;;;;;;;6.73;92.03;96217.30;1598218;89;20164;-75
2022/11/18 04:02:23;;;;;;;23.57;14.75;;;;;;;6.69;92.10;96212.61;1624044;88;21033;-76
2022/11/18 04:04:53;;;;;;;26.45;15.05;;;;;;;6.65;92.09;96208.42;1613416;88;21013;-76
2022/11/18 04:07:33;;;;;;;24.67;14.23;;;;;;;6.59;91.89;96212.61;1590413;90;21389;-76
2022/11/18 04:10:13;;;;;;;25.77;15.10;;;;;;;6.54;92.20;96211.50;1598966;90;21028;-76
2022/11/18 04:12:48;;;;;;;26.73;14.43;;;;;;;6.51;92.10;96214.25;1604154;88;21025;-76
2022/11/18 04:15:16;;;;;;;24.55;14.53;;;;;;;6.46;91.85;96210.96;1615102;88;21023;-76
2022/11/18 04:17:42;;;;;;;24.85;13.78;;;;;;;6.41;92.07;96203.27;1637778;87;21041;-76
2022/11/18 04:20:21;;;;;;;23.62;13.22;;;;;;;6.34;92.33;96202.67;1637891;87;21048;-76
2022/11/18 04:22:48;;;;;;;23.27;13.40;;;;;;;6.30;92.29;96193.19;1637837;87;21048;-76
2022/11/18 04:25:15;;;;;;;22.77;12.75;;;;;;;6.26;92.18;96184.15;1638034;88;21030;-77
2022/11/18 04:27:41;;;;;;;23.50;12.68;;;;;;;6.18;92.02;96170.00;1637087;87;21498;-76
2022/11/18 04:30:09;;;;;;;21.85;12.78;;;;;;;6.10;92.34;96163.75;1637955;87;21049;-76
2022/11/18 04:32:36;;;;;;;22.13;12.80;;;;;;;6.02;92.26;96167.14;1633762;87;21423;-76
2022/11/18 04:35:03;;;;;;;22.52;12.53;;;;;;;5.93;92.41;96171.84;1638096;88;21044;-76
2022/11/18 04:37:29;;;;;;;20.95;12.65;;;;;;;5.88;92.22;96169.86;1637898;88;21466;-76
2022/11/18 04:39:55;;;;;;;21.80;12.35;;;;;;;5.83;92.08;96165.70;1638076;87;21024;-75
2022/11/18 04:42:22;;;;;;;28.52;13.35;;;;;;;5.76;92.29;96159.83;1638002;87;21057;-75
2022/11/18 04:44:48;;;;;;;26.68;15.32;;;;;;;5.70;92.05;96154.38;1637928;87;21525;-76
2022/11/18 04:47:15;;;;;;;33.45;17.85;;;;;;;5.64;91.95;96146.27;1638157;87;21009;-75
2022/11/18 04:49:42;;;;;;;31.42;18.40;;;;;;;5.57;92.03;96152.70;1637395;87;20997;-76
2022/11/18 04:52:09;;;;;;;35.15;19.98;;;;;;;5.51;92.44;96143.72;1632073;88;21013;-76
2022/11/18 04:54:35;;;;;;;29.55;17.17;;;;;;;5.46;92.34;96146.54;1627155;87;21526;-76
2022/11/18 04:57:02;;;;;;;29.35;16.95;;;;;;;5.43;92.39;96145.33;1631816;87;21013;-75
2022/11/18 04:59:30;;;;;;;28.05;15.55;;;;;;;5.39;92.47;96151.61;1624553;87;21070;-75
2022/11/18 05:01:59;;;;;;;28.23;16.00;;;;;;;5.36;92.31;96172.77;1614449;87;21072;-76
2022/11/18 05:04:31;;;;;;;30.15;15.30;;;;;;;5.33;92.45;96174.19;1608398;88;21112;-75
2022/11/18 05:07:00;;;;;;;27.30;14.38;;;;;;;5.31;92.57;96165.52;1613568;88;21033;-75
2022/11/18 05:09:28;;;;;;;29.15;15.70;;;;;;;5.27;92.73;96177.45;1615781;88;21004;-76
2022/11/18 05:14:40;;;;;;;28.02;15.65;;;;;;;5.28;93.06;96180.47;1617075;87;21059;-77
2022/11/18 05:17:09;;;;;;;31.48;14.73;;;;;;;5.28;92.90;96188.82;1633837;87;21088;-76
2022/11/18 05:19:38;;;;;;;25.32;13.72;;;;;;;5.26;92.73;96186.25;1618597;88;21040;-76
2022/11/18 05:22:07;;;;;;;24.98;14.65;;;;;;;5.22;92.64;96184.64;1619747;88;20981;-77
2022/11/18 05:24:33;;;;;;;33.50;16.62;;;;;;;5.18;92.69;96196.65;1620054;87;21020;-77
2022/11/18 05:27:00;;;;;;;39.63;18.05;;;;;;;5.12;92.62;96197.24;1612419;88;21112;-78
2022/11/18 05:29:26;;;;;;;43.92;19.48;;;;;;;5.08;92.80;96191.73;1614536;88;21024;-78
2022/11/18 05:31:53;;;;;;;47.65;22.50;;;;;;;5.09;92.85;96194.75;1613035;88;21071;-78
2022/11/18 05:34:20;;;;;;;47.60;23.25;;;;;;;5.09;92.72;96188.63;1613956;88;20997;-78
2022/11/18 05:36:46;;;;;;;48.30;21.87;;;;;;;5.09;92.96;96190.81;1630869;88;21402;-79
2022/11/18 05:39:12;;;;;;;42.08;22.75;;;;;;;5.13;93.12;96191.55;1636801;87;21044;-79
2022/11/18 05:44:23;;;;;;;;;;;;;;;5.18;93.05;96190.92;1638121;87;21471;-78
2022/11/18 05:46:50;;;;;;;44.85;22.35;;;;;;;5.18;93.36;96192.23;1635006;88;20342;-78
2022/11/18 05:49:16;;;;;;;45.80;22.37;;;;;;;5.22;93.78;96192.52;1636845;87;21080;-78
2022/11/18 05:51:43;;;;;;;39.45;20.75;;;;;;;5.22;93.35;96192.52;1635001;87;20976;-80
2022/11/18 05:54:12;;;;;;;41.63;20.20;;;;;;;5.25;93.53;96195.05;1636312;87;21060;-78
2022/11/18 05:56:45;;;;;;;43.70;21.00;;;;;;;5.24;93.34;96197.73;1638054;87;21778;-78
2022/11/18 05:59:12;;;;;;;39.05;20.20;;;;;;;5.20;93.29;96195.68;1633892;87;21064;-78
2022/11/18 06:01:44;;;;;;;34.78;18.82;;;;;;;5.20;93.65;96195.68;1637843;87;20985;-79
2022/11/18 06:04:31;;;;;;;38.35;19.92;;;;;;;5.26;94.04;96207.26;1638018;87;21064;-80
2022/11/18 06:07:06;;;;;;;38.48;18.95;;;;;;;5.26;93.67;96211.20;1634111;87;21101;-80
2022/11/18 06:09:35;;;;;;;;;;;;;;;5.23;93.63;96220.97;1636267;88;21442;-79
2022/11/18 06:12:04;;;;;;;34.05;19.10;;;;;;;5.19;93.72;96224.14;1638044;88;20100;-79
2022/11/18 06:14:42;;;;;;;36.50;19.57;;;;;;;5.18;93.72;96217.66;1636826;87;21495;-80
2022/11/18 06:17:16;;;;;;;35.95;17.67;;;;;;;5.18;94.05;96221.59;1627046;87;21029;-80
2022/11/18 06:19:43;;;;;;;31.15;17.10;;;;;;;5.24;94.26;96222.67;1619653;88;21396;-80
2022/11/18 06:22:10;;;;;;;33.60;16.75;;;;;;;5.22;93.72;96227.98;1637814;88;21065;-78
2022/11/18 06:24:38;;;;;;;31.75;17.05;;;;;;;5.20;93.68;96221.07;1637956;87;21507;-80
2022/11/18 06:27:04;;;;;;;32.65;17.37;;;;;;;5.18;93.87;96226.85;1637835;87;21435;-79
2022/11/18 06:29:31;;;;;;;33.48;18.77;;;;;;;5.23;94.40;96231.00;1637793;87;21048;-80
2022/11/18 06:31:58;;;;;;;29.35;17.15;;;;;;;5.26;93.87;96230.90;1633977;87;21470;-81
2022/11/18 06:34:24;;;;;;;30.23;15.88;;;;;;;5.24;93.87;96236.64;1639818;87;21017;-80
2022/11/18 06:36:51;;;;;;;29.27;16.10;;;;;;;5.28;93.90;96230.84;1639649;87;21040;-80
2022/11/18 06:39:18;;;;;;;27.77;15.88;;;;;;;5.31;94.32;96234.66;1639803;87;21447;-80
2022/11/18 06:41:44;;;;;;;32.73;16.62;;;;;;;5.39;94.73;96235.23;1639741;87;21049;-80
2022/11/18 06:44:11;;;;;;;27.05;16.05;;;;;;;5.44;94.45;96228.96;1640075;87;21044;-79
2022/11/18 06:46:56;;;;;;;31.95;17.23;;;;;;;5.48;94.38;96228.77;1637122;87;21024;-80
2022/11/18 06:49:27;;;;;;;29.25;16.20;;;;;;;5.51;94.00;96228.67;1639904;87;20999;-80
2022/11/18 06:51:54;;;;;;;31.97;17.57;;;;;;;5.55;94.22;96222.83;1639914;87;21422;-79
2022/11/18 06:54:21;;;;;;;31.05;16.90;;;;;;;5.59;94.02;96223.12;1620476;87;21079;-81
2022/11/18 06:56:47;;;;;;;30.55;17.75;;;;;;;5.62;93.93;96223.02;1636136;87;21407;-80
2022/11/18 06:59:14;;;;;;;34.20;18.45;;;;;;;5.68;94.21;96222.77;1639974;87;20969;-81
2022/11/18 07:01:41;;;;;;;82.92;41.25;;;;;;;5.74;94.20;96228.25;1639471;87;21482;-82
2022/11/18 07:04:08;;;;;;;34.00;17.55;;;;;;;5.76;93.78;96219.84;1639464;87;20984;-82
2022/11/18 07:06:35;;;;;;;30.82;17.73;;;;;;;5.78;93.74;96213.22;1627205;87;20980;-82
2022/11/18 07:09:06;;;;;;;31.27;18.27;;;;;;;5.81;93.77;96215.25;1634420;87;21120;-81
2022/11/18 07:11:33;;;;;;;33.95;17.82;;;;;;;5.83;93.69;96216.96;1623783;87;21016;-81
2022/11/18 07:14:00;;;;;;;38.20;17.87;;;;;;;5.87;93.75;96217.24;1622774;87;21021;-81
2022/11/18 07:16:27;;;;;;;36.75;18.55;;;;;;;5.90;93.62;96219.28;1630032;87;21443;-81
2022/11/18 07:18:55;;;;;;;32.88;18.80;;;;;;;5.93;93.51;96216.55;1621175;87;21433;-81
2022/11/18 07:21:25;;;;;;;30.75;17.25;;;;;;;5.94;93.55;96216.10;1614105;87;21013;-81
2022/11/18 07:23:53;;;;;;;31.93;18.02;;;;;;;5.97;93.29;96215.95;1627507;87;21052;-80
2022/11/18 07:26:22;;;;;;;27.65;16.23;;;;;;;5.99;93.32;96204.07;1601314;89;22498;-81
2022/11/18 07:28:49;;;;;;;29.55;15.98;;;;;;;6.04;93.49;96208.72;1622661;87;21051;-81
2022/11/18 07:31:19;;;;;;;29.70;15.43;;;;;;;6.09;93.54;96203.29;1626243;87;21051;-80
2022/11/18 07:33:47;;;;;;;28.20;15.60;;;;;;;6.13;93.30;96208.34;1623437;88;21064;-80
2022/11/18 07:36:20;;;;;;;30.40;16.15;;;;;;;6.17;93.36;96200.73;1617195;87;21044;-81
2022/11/18 07:38:47;;;;;;;30.43;15.68;;;;;;;6.22;93.12;96207.11;1622686;88;21000;-81
2022/11/18 07:41:20;;;;;;;29.90;16.62;;;;;;;6.26;93.05;96201.25;1615399;88;21012;-80
2022/11/18 07:43:49;;;;;;;30.32;16.85;;;;;;;6.30;92.89;96191.88;1625988;88;21040;-80
2022/11/18 07:46:23;;;;;;;25.52;15.15;;;;;;;6.36;92.93;96184.19;1629672;87;21060;-80
2022/11/18 07:48:54;;;;;;;34.70;17.25;;;;;;;6.39;92.87;96182.73;1623286;88;21020;-80
2022/11/18 07:51:24;;;;;;;28.35;16.27;;;;;;;6.45;92.78;96185.56;1619260;87;21513;-80
2022/11/18 07:53:51;;;;;;;29.25;17.07;;;;;;;6.48;92.56;96180.19;1622760;88;21059;-82
2022/11/18 07:56:19;;;;;;;36.75;18.35;;;;;;;6.53;92.48;96181.30;1624201;87;20989;-80
2022/11/18 07:58:46;;;;;;;29.35;15.63;;;;;;;6.57;92.37;96178.45;1646203;87;21062;-80
2022/11/18 08:01:17;;;;;;;31.40;16.67;;;;;;;6.64;92.42;96179.52;1634099;87;21453;-81
2022/11/18 08:03:45;;;;;;;31.68;15.78;;;;;;;6.68;92.17;96183.27;1641697;87;21430;-82
2022/11/18 08:06:16;;;;;;;29.60;15.20;;;;;;;6.76;92.21;96180.30;1622723;87;21085;-82
2022/11/18 08:08:43;;;;;;;29.85;16.12;;;;;;;6.83;91.97;96184.84;1617956;87;21068;-81
2022/11/18 08:11:13;;;;;;;31.10;17.27;;;;;;;6.92;91.99;96187.52;1625906;87;21059;-80
2022/11/18 08:13:40;;;;;;;25.15;14.47;;;;;;;7.00;91.59;96190.23;1630462;87;21014;-81
2022/11/18 08:16:19;;;;;;;22.42;13.80;;;;;;;7.07;91.63;96191.27;1585418;89;20986;-82
2022/11/18 08:18:46;;;;;;;24.80;13.10;;;;;;;7.15;91.36;96187.83;1576676;90;21534;-82
2022/11/18 08:21:14;;;;;;;24.90;12.25;;;;;;;7.21;91.00;96187.55;1610023;88;21021;-81
2022/11/18 08:23:41;;;;;;;21.57;12.53;;;;;;;7.19;90.26;96177.52;1628127;88;21052;-81
2022/11/18 08:26:12;;;;;;;25.95;13.28;;;;;;;7.18;90.29;96177.13;1614197;87;21083;-81
2022/11/18 08:28:41;;;;;;;21.80;11.65;;;;;;;7.21;89.74;96170.87;1612570;88;21051;-80
2022/11/18 08:31:17;;;;;;;22.93;13.30;;;;;;;7.22;89.51;96179.16;1615587;88;21020;-81
2022/11/18 08:33:45;;;;;;;20.77;12.07;;;;;;;7.21;89.92;96174.37;1615635;87;21028;-76
2022/11/18 08:36:19;;;;;;;21.05;12.45;;;;;;;7.23;89.29;96168.55;1631229;87;21004;-77
2022/11/18 08:38:45;;;;;;;22.90;13.75;;;;;;;7.23;89.71;96173.83;1621245;87;21606;-75
2022/11/18 08:41:16;;;;;;;22.42;12.88;;;;;;;7.28;89.42;96176.27;1625881;86;21067;-77
2022/11/18 08:43:43;;;;;;;21.80;12.53;;;;;;;7.30;89.61;96173.57;1621662;86;21048;-75
2022/11/18 08:46:10;;;;;;;22.55;13.53;;;;;;;7.35;89.86;96176.84;1614418;87;22512;-75
2022/11/18 08:48:36;;;;;;;24.70;13.83;;;;;;;7.40;89.41;96185.39;1616914;88;21098;-77
2022/11/18 08:51:04;;;;;;;25.08;13.65;;;;;;;7.45;89.52;96181.22;1612091;88;21115;-77
2022/11/18 08:53:31;;;;;;;21.80;13.03;;;;;;;7.51;89.43;96190.14;1608392;88;21067;-77
2022/11/18 08:56:00;;;;;;;24.85;14.43;;;;;;;7.57;89.43;96191.20;1625342;88;21015;-77
2022/11/18 08:58:27;;;;;;;26.07;13.45;;;;;;;7.62;89.18;96181.30;1623863;88;21072;-77
2022/11/18 09:00:54;;;;;;;27.00;13.98;;;;;;;7.65;88.49;96186.88;1637733;87;21485;-77
2022/11/18 09:03:22;;;;;;;21.77;13.10;;;;;;;7.67;87.69;96194.25;1613326;88;21057;-78
2022/11/18 09:05:49;;;;;;;20.68;11.97;;;;;;;7.71;87.94;96197.59;1622493;88;20987;-77
2022/11/18 09:08:15;;;;;;;19.32;11.43;;;;;;;7.75;88.20;96190.80;1625483;88;21018;-77
2022/11/18 09:10:42;;;;;;;22.98;11.95;;;;;;;7.80;88.08;96190.56;1625657;88;21003;-78
2022/11/18 09:13:08;;;;;;;17.37;10.90;;;;;;;7.88;88.60;96189.74;1625724;88;21338;-76
2022/11/18 09:15:35;;;;;;;19.85;11.10;;;;;;;7.98;88.71;96183.58;1626220;88;20982;-72
2022/11/18 09:18:02;;;;;;;17.52;10.23;;;;;;;8.05;88.00;96181.02;1623782;88;21007;-73
2022/11/18 09:20:28;;;;;;;19.55;11.25;;;;;;;8.21;88.47;96182.06;1605405;88;21019;-72
2022/11/18 09:22:55;;;;;;;21.27;11.50;;;;;;;8.32;88.28;96181.88;1598092;88;21057;-72
2022/11/18 09:25:21;;;;;;;20.05;11.10;;;;;;;8.41;88.26;96173.13;1634626;87;21449;-72
2022/11/18 09:27:51;;;;;;;18.35;9.80;;;;;;;8.52;86.96;96168.18;1636517;87;20996;-71
2022/11/18 09:30:17;;;;;;;20.00;10.85;;;;;;;8.62;87.59;96163.75;1580935;90;21083;-72
2022/11/18 09:32:44;;;;;;;18.42;10.45;;;;;;;8.72;87.97;96164.98;1638493;87;21013;-72
2022/11/18 09:35:10;;;;;;;20.10;10.80;;;;;;;8.75;86.04;96159.55;1596307;90;21034;-72
2022/11/18 09:37:37;;;;;;;16.77;9.93;;;;;;;8.83;86.54;96157.38;1627193;87;21033;-72
2022/11/18 09:40:04;;;;;;;18.98;11.03;;;;;;;8.91;86.73;96164.03;1636417;87;21486;-72
2022/11/18 09:42:56;;;;;;;17.07;9.88;;;;;;;8.94;85.70;96165.20;1640176;87;21012;-72
2022/11/18 09:45:39;;;;;;;23.35;11.60;;;;;;;8.98;85.82;96164.11;1636042;87;21000;-72
2022/11/18 09:48:17;;;;;;;23.05;10.50;;;;;;;8.98;83.90;96151.73;1633091;87;21056;-72
2022/11/18 09:50:43;;;;;;;19.00;9.85;;;;;;;8.98;85.08;96151.73;1622145;87;21072;-71
2022/11/18 09:53:23;;;;;;;20.12;10.10;;;;;;;8.99;85.20;96145.99;1634043;86;21442;-72
2022/11/18 09:55:51;;;;;;;17.45;10.20;;;;;;;8.93;84.12;96152.45;1637035;87;21473;-72
2022/11/18 09:58:34;;;;;;;16.80;9.80;;;;;;;8.93;84.13;96146.33;1638745;87;21422;-72
2022/11/18 10:01:02;;;;;;;16.35;8.73;;;;;;;8.88;83.65;96145.23;1635746;87;21056;-71
2022/11/18 10:03:32;;;;;;;18.02;10.63;;;;;;;8.89;84.24;96137.69;1639723;87;20997;-72
2022/11/18 10:06:10;;;;;;;17.52;9.65;;;;;;;8.91;84.25;96131.01;1633307;87;21458;-72
2022/11/18 10:09:23;;;;;;;15.30;9.43;;;;;;;8.95;84.29;96132.10;1629693;87;21028;-72
2022/11/18 10:12:38;;;;;;;16.82;9.28;;;;;;;8.85;83.67;96122.47;1628058;87;21056;-72
2022/11/18 10:15:35;;;;;;;16.60;9.20;;;;;;;8.82;84.14;96121.34;1626137;87;20984;-72
2022/11/18 10:18:27;;;;;;;17.82;10.23;;;;;;;8.82;83.94;96119.15;1637459;87;21430;-72
2022/11/18 10:21:41;;;;;;;18.05;10.10;;;;;;;8.82;83.01;96114.73;1637478;87;21056;-72
2022/11/18 10:24:20;;;;;;;18.98;10.58;;;;;;;8.82;83.52;96115.19;1639730;87;21012;-72
2022/11/18 10:26:51;;;;;;;21.25;10.98;;;;;;;8.79;83.22;96123.26;1639703;87;20988;-71
2022/11/18 10:29:17;;;;;;;21.27;10.80;;;;;;;8.75;83.54;96125.70;1639203;87;21016;-72
2022/11/18 10:32:06;;;;;;;24.52;12.47;;;;;;;8.78;83.76;96118.92;1637940;87;21462;-71
2022/11/18 10:34:38;;;;;;;30.55;12.95;;;;;;;8.78;83.48;96114.50;1637610;87;21040;-72
2022/11/18 10:37:25;;;;;;;23.90;13.03;;;;;;;8.78;83.51;96115.83;1635546;87;21069;-72
2022/11/18 10:39:55;;;;;;;30.85;13.20;;;;;;;8.82;83.68;96113.86;1590010;89;21024;-72
2022/11/18 10:42:36;;;;;;;30.95;12.47;;;;;;;8.83;83.37;96114.24;1618520;88;21427;-72
2022/11/18 10:45:28;;;;;;;24.40;12.33;;;;;;;8.85;83.60;96111.91;1638182;87;20997;-72
2022/11/18 10:48:08;;;;;;;22.60;11.60;;;;;;;8.85;82.92;96108.43;1637843;87;21075;-71
2022/11/18 10:50:45;;;;;;;27.93;13.05;;;;;;;8.87;82.67;96109.19;1638155;87;21008;-72
2022/11/18 10:53:34;;;;;;;32.00;11.97;;;;;;;8.87;82.76;96104.36;1632258;87;21044;-72
2022/11/18 10:56:07;;;;;;;27.05;10.38;;;;;;;8.85;82.42;96105.79;1618821;88;21083;-72
2022/11/18 10:58:38;;;;;;;26.37;11.48;;;;;;;8.83;82.54;96097.08;1631742;88;21076;-72
2022/11/18 11:01:23;;;;;;;28.60;12.20;;;;;;;8.79;81.90;96092.43;1620343;88;21045;-72
2022/11/18 11:04:04;;;;;;;28.87;12.20;;;;;;;8.76;82.35;96091.27;1637859;88;21493;-72
2022/11/18 11:06:37;;;;;;;24.77;12.95;;;;;;;8.77;82.51;96083.75;1625910;86;21618;-72
2022/11/18 11:09:23;;;;;;;23.90;11.38;;;;;;;8.74;82.24;96082.58;1633041;88;21418;-72
2022/11/18 11:12:12;;;;;;;31.57;12.30;;;;;;;8.71;82.23;96062.92;1638075;87;21049;-73
2022/11/18 11:14:57;;;;;;;22.73;12.20;;;;;;;8.69;82.60;96060.36;1628646;87;21491;-72
2022/11/18 11:17:32;;;;;;;22.87;11.70;;;;;;;8.65;82.71;96064.58;1626530;88;21004;-72
2022/11/18 11:20:07;;;;;;;31.80;14.45;;;;;;;8.57;82.97;96067.63;1636700;87;21009;-72
2022/11/18 11:22:34;;;;;;;27.87;13.08;;;;;;;8.53;83.07;96056.38;1589928;90;21022;-72
2022/11/18 11:25:00;;;;;;;27.50;13.88;;;;;;;8.47;83.67;96051.38;1599315;90;21001;-72
2022/11/18 11:27:57;;;;;;;28.10;14.25;;;;;;;8.40;83.80;96063.20;1626763;88;21041;-75
2022/11/18 11:30:25;;;;;;;25.45;12.78;;;;;;;8.37;83.81;96061.57;1613381;88;21041;-72
2022/11/18 11:33:19;;;;;;;46.28;15.50;;;;;;;8.33;84.57;96044.18;1637921;88;21060;-72
2022/11/18 11:36:34;;;;;;;31.68;13.32;;;;;;;8.35;84.55;96032.23;1638061;87;21079;-73
2022/11/18 11:39:09;;;;;;;26.02;13.25;;;;;;;8.38;84.60;96038.20;1626980;88;21012;-73
2022/11/18 11:41:46;;;;;;;25.75;12.85;;;;;;;8.40;85.12;96023.15;1629039;87;21040;-72
2022/11/18 11:44:49;;;;;;;26.05;11.65;;;;;;;8.42;85.63;96021.27;1625911;87;21022;-72
2022/11/18 11:47:56;;;;;;;29.15;12.60;;;;;;;8.44;85.30;96018.06;1612617;88;21063;-72
2022/11/18 11:50:52;;;;;;;28.40;12.20;;;;;;;8.47;85.74;96018.38;1614479;88;21430;-72
2022/11/18 11:53:17;;;;;;;22.02;11.08;;;;;;;8.51;86.20;96013.31;1629827;88;21032;-73
2022/11/18 11:55:57;;;;;;;20.23;10.98;;;;;;;8.53;86.45;96014.14;1632043;88;21130;-72
2022/11/18 11:59:08;;;;;;;26.15;11.00;;;;;;;8.57;86.37;96010.86;1632048;87;21029;-72
2022/11/18 12:02:04;;;;;;;21.25;10.72;;;;;;;8.58;86.18;96008.14;1619875;88;21494;-72
2022/11/18 12:04:54;;;;;;;27.13;11.70;;;;;;;8.67;86.79;96008.56;1615008;88;21557;-72